CheckWX is a tool to help pilots better visualize weather data.  It is not intended as a substitute for an official pre-flight weather briefing.

21:03:48 UTC

KFMN METAR
Four Corners Regional Airport
Farmington, New Mexico, USA
Current

11 mins ago

KFMN 232053Z 21021G34KT 10SM SCT070 14/M02 A2994 RMK AO2 PK WND 21034/2049 SLP113 60002 T01441022 51012
Observed
May-23 @ 20:53 UTC
Wind
  • 210° at 21 KTS
  • Gusting to 34 KTS
Visibility
10 SM
Flight Rules
VFR
Cloud Levels
  • Scattered at 7,000' AGL
Temperature
14°C / 57°F
Dewpoint
-2°C / 28°F
Humidity
33%
Altimeter
29.94" Hg
Pressure
1013.92 hPa
Previous

1 hour ago

KFMN 231953Z 22016G22KT 10SM FEW050 SCT070 13/03 A2993 RMK AO2 PK WND 23026/1916 RAB00E26 SLP110 P0000 T01330028
Observed
May-23 @ 19:53 UTC
Wind
  • 220° at 16 KTS
  • Gusting to 22 KTS
Visibility
10 SM
Flight Rules
VFR
Cloud Levels
  • Few at 5,000' AGL
  • Scattered at 7,000' AGL
Temperature
13°C / 55°F
Dewpoint
C / 37°F
Humidity
51%
Altimeter
29.93" Hg
Pressure
1013.52 hPa
Current Rain
0.01"
Previous

2 hours ago

KFMN 231853Z 23014KT 10SM SCT040 BKN060 BKN100 09/05 A2993 RMK AO2 PK WND 25031/1807 RAE46 SLP116 P0002 T00940050
Observed
May-23 @ 18:53 UTC
Wind
  • 230° at 14 KTS
Visibility
10 SM
Flight Rules
VFR
Cloud Levels
  • Scattered at 4,000' AGL
  • Broken at 6,000' AGL
  • Broken at 10,000' AGL
Temperature
C / 48°F
Dewpoint
C / 41°F
Humidity
76%
Altimeter
29.93" Hg
Pressure
1013.52 hPa
Current Rain
0.02"